sensor_id;sensor_type;location;lat;lon;timestamp;temperature;humidity
15409;DHT22;7803;48.130;13.788;2022-07-09T00:01:09;22.10;83.90
15409;DHT22;7803;48.130;13.788;2022-07-09T00:04:11;22.10;83.60
15409;DHT22;7803;48.130;13.788;2022-07-09T00:07:13;22.10;84.00
15409;DHT22;7803;48.130;13.788;2022-07-09T00:10:15;22.10;84.10
15409;DHT22;7803;48.130;13.788;2022-07-09T00:13:18;22.10;84.20
15409;DHT22;7803;48.130;13.788;2022-07-09T00:16:20;22.10;84.20
15409;DHT22;7803;48.130;13.788;2022-07-09T00:19:22;22.10;84.20
15409;DHT22;7803;48.130;13.788;2022-07-09T00:22:24;22.10;84.20
15409;DHT22;7803;48.130;13.788;2022-07-09T00:25:28;22.00;84.40
15409;DHT22;7803;48.130;13.788;2022-07-09T00:28:31;22.10;84.40
15409;DHT22;7803;48.130;13.788;2022-07-09T00:31:33;22.10;84.40
15409;DHT22;7803;48.130;13.788;2022-07-09T00:34:35;22.10;84.50
15409;DHT22;7803;48.130;13.788;2022-07-09T00:37:37;22.10;84.40
15409;DHT22;7803;48.130;13.788;2022-07-09T00:40:39;22.10;84.20
15409;DHT22;7803;48.130;13.788;2022-07-09T00:43:48;22.10;84.30
15409;DHT22;7803;48.130;13.788;2022-07-09T00:46:50;22.10;84.20
15409;DHT22;7803;48.130;13.788;2022-07-09T00:49:52;22.10;83.90
15409;DHT22;7803;48.130;13.788;2022-07-09T00:52:54;22.00;83.80
15409;DHT22;7803;48.130;13.788;2022-07-09T00:55:57;22.00;83.70
15409;DHT22;7803;48.130;13.788;2022-07-09T00:59:01;22.10;83.70
15409;DHT22;7803;48.130;13.788;2022-07-09T01:02:09;22.00;83.40
15409;DHT22;7803;48.130;13.788;2022-07-09T01:05:11;22.10;83.50
15409;DHT22;7803;48.130;13.788;2022-07-09T01:08:13;22.00;83.40
15409;DHT22;7803;48.130;13.788;2022-07-09T01:11:15;22.00;83.30
15409;DHT22;7803;48.130;13.788;2022-07-09T01:14:18;22.00;83.20
15409;DHT22;7803;48.130;13.788;2022-07-09T01:17:21;22.00;83.00
15409;DHT22;7803;48.130;13.788;2022-07-09T01:20:24;22.00;83.30
15409;DHT22;7803;48.130;13.788;2022-07-09T01:23:27;22.00;83.40
15409;DHT22;7803;48.130;13.788;2022-07-09T01:26:29;22.00;83.40
15409;DHT22;7803;48.130;13.788;2022-07-09T01:29:32;22.00;83.30
15409;DHT22;7803;48.130;13.788;2022-07-09T01:32:34;22.00;83.20
15409;DHT22;7803;48.130;13.788;2022-07-09T01:35:37;22.00;83.10
15409;DHT22;7803;48.130;13.788;2022-07-09T01:38:39;22.00;83.00
15409;DHT22;7803;48.130;13.788;2022-07-09T01:41:41;22.00;82.80
15409;DHT22;7803;48.130;13.788;2022-07-09T01:44:44;22.00;83.10
15409;DHT22;7803;48.130;13.788;2022-07-09T01:47:46;22.00;83.30
15409;DHT22;7803;48.130;13.788;2022-07-09T01:50:49;22.00;83.50
15409;DHT22;7803;48.130;13.788;2022-07-09T01:53:54;22.00;83.70
15409;DHT22;7803;48.130;13.788;2022-07-09T01:56:56;22.00;83.80
15409;DHT22;7803;48.130;13.788;2022-07-09T01:59:58;22.00;83.70
15409;DHT22;7803;48.130;13.788;2022-07-09T02:03:01;22.00;83.80
15409;DHT22;7803;48.130;13.788;2022-07-09T02:06:05;21.90;83.80
15409;DHT22;7803;48.130;13.788;2022-07-09T02:09:07;22.00;84.00
15409;DHT22;7803;48.130;13.788;2022-07-09T02:12:09;21.90;84.20
15409;DHT22;7803;48.130;13.788;2022-07-09T02:15:11;21.90;84.30
15409;DHT22;7803;48.130;13.788;2022-07-09T02:18:13;22.00;84.50
15409;DHT22;7803;48.130;13.788;2022-07-09T02:21:17;22.00;84.50
15409;DHT22;7803;48.130;13.788;2022-07-09T02:24:19;22.00;84.50
15409;DHT22;7803;48.130;13.788;2022-07-09T02:27:22;22.00;84.50
15409;DHT22;7803;48.130;13.788;2022-07-09T02:30:24;22.00;84.70
15409;DHT22;7803;48.130;13.788;2022-07-09T02:33:26;21.90;84.50
15409;DHT22;7803;48.130;13.788;2022-07-09T02:36:30;21.90;85.60
15409;DHT22;7803;48.130;13.788;2022-07-09T02:39:32;21.90;84.70
15409;DHT22;7803;48.130;13.788;2022-07-09T02:42:34;21.90;84.70
15409;DHT22;7803;48.130;13.788;2022-07-09T02:45:37;21.90;84.80
15409;DHT22;7803;48.130;13.788;2022-07-09T02:48:39;21.90;84.90
15409;DHT22;7803;48.130;13.788;2022-07-09T02:51:42;21.90;85.00
15409;DHT22;7803;48.130;13.788;2022-07-09T02:54:44;21.90;85.20
15409;DHT22;7803;48.130;13.788;2022-07-09T02:57:46;21.90;85.20
15409;DHT22;7803;48.130;13.788;2022-07-09T03:00:48;21.90;86.10
15409;DHT22;7803;48.130;13.788;2022-07-09T03:03:50;21.90;85.20
15409;DHT22;7803;48.130;13.788;2022-07-09T03:06:54;21.90;85.20
15409;DHT22;7803;48.130;13.788;2022-07-09T03:09:56;21.90;85.30
15409;DHT22;7803;48.130;13.788;2022-07-09T03:12:58;21.90;85.20
15409;DHT22;7803;48.130;13.788;2022-07-09T03:16:00;21.90;85.20
15409;DHT22;7803;48.130;13.788;2022-07-09T03:19:02;21.90;85.20
15409;DHT22;7803;48.130;13.788;2022-07-09T03:22:06;21.90;85.40
15409;DHT22;7803;48.130;13.788;2022-07-09T03:25:08;21.90;85.70
15409;DHT22;7803;48.130;13.788;2022-07-09T03:28:11;21.90;85.60
15409;DHT22;7803;48.130;13.788;2022-07-09T03:31:13;21.90;85.80
15409;DHT22;7803;48.130;13.788;2022-07-09T03:34:15;21.90;85.90
15409;DHT22;7803;48.130;13.788;2022-07-09T03:37:18;21.90;85.90
15409;DHT22;7803;48.130;13.788;2022-07-09T03:40:21;21.90;86.10
15409;DHT22;7803;48.130;13.788;2022-07-09T03:43:23;21.90;85.70
15409;DHT22;7803;48.130;13.788;2022-07-09T03:46:25;21.90;85.10
15409;DHT22;7803;48.130;13.788;2022-07-09T03:49:27;21.80;85.20
15409;DHT22;7803;48.130;13.788;2022-07-09T03:52:30;21.80;84.60
15409;DHT22;7803;48.130;13.788;2022-07-09T03:55:32;21.80;84.80
15409;DHT22;7803;48.130;13.788;2022-07-09T03:58:35;21.80;84.90
15409;DHT22;7803;48.130;13.788;2022-07-09T04:01:38;21.80;84.70
15409;DHT22;7803;48.130;13.788;2022-07-09T04:04:41;21.80;84.50
15409;DHT22;7803;48.130;13.788;2022-07-09T04:07:45;21.80;84.80
15409;DHT22;7803;48.130;13.788;2022-07-09T04:10:47;21.80;84.90
15409;DHT22;7803;48.130;13.788;2022-07-09T04:13:49;21.80;85.00
15409;DHT22;7803;48.130;13.788;2022-07-09T04:16:51;21.80;85.30
15409;DHT22;7803;48.130;13.788;2022-07-09T04:19:53;21.80;85.40
15409;DHT22;7803;48.130;13.788;2022-07-09T04:22:57;21.80;85.70
15409;DHT22;7803;48.130;13.788;2022-07-09T04:25:59;21.80;85.90
15409;DHT22;7803;48.130;13.788;2022-07-09T04:29:01;21.80;85.90
15409;DHT22;7803;48.130;13.788;2022-07-09T04:32:04;21.80;86.00
15409;DHT22;7803;48.130;13.788;2022-07-09T04:35:06;21.80;86.20
15409;DHT22;7803;48.130;13.788;2022-07-09T04:38:11;21.80;86.20
15409;DHT22;7803;48.130;13.788;2022-07-09T04:41:13;21.80;86.40
15409;DHT22;7803;48.130;13.788;2022-07-09T04:44:15;21.80;86.40
15409;DHT22;7803;48.130;13.788;2022-07-09T04:47:17;21.80;86.60
15409;DHT22;7803;48.130;13.788;2022-07-09T04:50:19;21.80;86.70
15409;DHT22;7803;48.130;13.788;2022-07-09T04:53:22;21.80;86.60
15409;DHT22;7803;48.130;13.788;2022-07-09T04:56:25;21.80;86.70
15409;DHT22;7803;48.130;13.788;2022-07-09T04:59:27;21.80;86.90
15409;DHT22;7803;48.130;13.788;2022-07-09T05:02:29;21.80;86.90
15409;DHT22;7803;48.130;13.788;2022-07-09T05:05:31;21.80;87.10
15409;DHT22;7803;48.130;13.788;2022-07-09T05:08:34;21.80;87.30
15409;DHT22;7803;48.130;13.788;2022-07-09T05:11:36;21.70;87.30
15409;DHT22;7803;48.130;13.788;2022-07-09T05:14:39;21.80;87.40
15409;DHT22;7803;48.130;13.788;2022-07-09T05:17:41;21.80;87.60
15409;DHT22;7803;48.130;13.788;2022-07-09T05:20:43;21.70;87.50
15409;DHT22;7803;48.130;13.788;2022-07-09T05:23:47;21.80;87.70
15409;DHT22;7803;48.130;13.788;2022-07-09T05:26:49;21.70;87.70
15409;DHT22;7803;48.130;13.788;2022-07-09T05:29:51;21.70;87.70
15409;DHT22;7803;48.130;13.788;2022-07-09T05:32:53;21.70;87.80
15409;DHT22;7803;48.130;13.788;2022-07-09T05:35:55;21.70;88.00
15409;DHT22;7803;48.130;13.788;2022-07-09T05:38:59;21.70;88.10
15409;DHT22;7803;48.130;13.788;2022-07-09T05:42:02;21.70;88.30
15409;DHT22;7803;48.130;13.788;2022-07-09T05:45:06;21.80;88.40
15409;DHT22;7803;48.130;13.788;2022-07-09T05:48:08;21.80;88.60
15409;DHT22;7803;48.130;13.788;2022-07-09T05:51:10;21.80;88.90
15409;DHT22;7803;48.130;13.788;2022-07-09T05:54:14;21.70;88.90
15409;DHT22;7803;48.130;13.788;2022-07-09T05:57:16;21.80;89.10
15409;DHT22;7803;48.130;13.788;2022-07-09T06:00:19;21.70;89.20
15409;DHT22;7803;48.130;13.788;2022-07-09T06:03:21;21.80;89.20
15409;DHT22;7803;48.130;13.788;2022-07-09T06:06:23;21.70;89.30
15409;DHT22;7803;48.130;13.788;2022-07-09T06:09:26;21.70;89.50
15409;DHT22;7803;48.130;13.788;2022-07-09T06:12:28;21.70;90.10
15409;DHT22;7803;48.130;13.788;2022-07-09T06:15:30;21.70;89.80
15409;DHT22;7803;48.130;13.788;2022-07-09T06:18:32;21.70;89.70
15409;DHT22;7803;48.130;13.788;2022-07-09T06:21:34;21.70;90.00
15409;DHT22;7803;48.130;13.788;2022-07-09T06:24:38;21.70;90.00
15409;DHT22;7803;48.130;13.788;2022-07-09T06:27:40;21.70;90.00
15409;DHT22;7803;48.130;13.788;2022-07-09T06:30:42;21.70;90.00
15409;DHT22;7803;48.130;13.788;2022-07-09T06:33:45;21.70;90.00
15409;DHT22;7803;48.130;13.788;2022-07-09T06:36:47;21.80;90.10
15409;DHT22;7803;48.130;13.788;2022-07-09T06:39:52;21.70;90.10
15409;DHT22;7803;48.130;13.788;2022-07-09T06:42:56;21.70;90.20
15409;DHT22;7803;48.130;13.788;2022-07-09T06:45:58;21.80;90.20
15409;DHT22;7803;48.130;13.788;2022-07-09T06:49:00;21.70;90.20
15409;DHT22;7803;48.130;13.788;2022-07-09T06:52:03;21.70;90.30
15409;DHT22;7803;48.130;13.788;2022-07-09T06:55:07;21.70;90.40
15409;DHT22;7803;48.130;13.788;2022-07-09T06:58:09;21.80;90.90
15409;DHT22;7803;48.130;13.788;2022-07-09T07:01:11;21.70;91.20
15409;DHT22;7803;48.130;13.788;2022-07-09T07:04:13;21.70;91.80
15409;DHT22;7803;48.130;13.788;2022-07-09T07:07:15;21.70;92.30
15409;DHT22;7803;48.130;13.788;2022-07-09T07:10:19;21.80;93.10
15409;DHT22;7803;48.130;13.788;2022-07-09T07:13:21;21.80;93.00
15409;DHT22;7803;48.130;13.788;2022-07-09T07:16:23;21.80;92.70
15409;DHT22;7803;48.130;13.788;2022-07-09T07:19:25;21.80;92.40
15409;DHT22;7803;48.130;13.788;2022-07-09T07:22:27;21.80;92.80
15409;DHT22;7803;48.130;13.788;2022-07-09T07:25:30;21.80;93.70
15409;DHT22;7803;48.130;13.788;2022-07-09T07:28:32;21.80;93.30
15409;DHT22;7803;48.130;13.788;2022-07-09T07:31:34;21.80;93.00
15409;DHT22;7803;48.130;13.788;2022-07-09T07:34:36;21.80;93.00
15409;DHT22;7803;48.130;13.788;2022-07-09T07:37:38;21.80;93.10
15409;DHT22;7803;48.130;13.788;2022-07-09T07:40:42;21.80;92.50
15409;DHT22;7803;48.130;13.788;2022-07-09T07:43:44;21.80;92.20
15409;DHT22;7803;48.130;13.788;2022-07-09T07:46:46;21.80;92.00
15409;DHT22;7803;48.130;13.788;2022-07-09T07:49:48;21.80;91.60
15409;DHT22;7803;48.130;13.788;2022-07-09T07:52:50;21.80;91.40
15409;DHT22;7803;48.130;13.788;2022-07-09T07:55:54;21.80;91.00
15409;DHT22;7803;48.130;13.788;2022-07-09T07:58:56;21.80;91.00
15409;DHT22;7803;48.130;13.788;2022-07-09T08:01:58;21.80;90.90
15409;DHT22;7803;48.130;13.788;2022-07-09T08:05:00;21.80;90.90
15409;DHT22;7803;48.130;13.788;2022-07-09T08:08:02;21.80;91.00
15409;DHT22;7803;48.130;13.788;2022-07-09T08:11:05;21.80;90.90
15409;DHT22;7803;48.130;13.788;2022-07-09T08:14:08;21.80;90.60
15409;DHT22;7803;48.130;13.788;2022-07-09T08:17:10;21.80;90.20
15409;DHT22;7803;48.130;13.788;2022-07-09T08:20:12;21.70;90.00
15409;DHT22;7803;48.130;13.788;2022-07-09T08:23:14;21.70;89.90
15409;DHT22;7803;48.130;13.788;2022-07-09T08:26:18;21.80;89.80
15409;DHT22;7803;48.130;13.788;2022-07-09T08:29:20;21.80;89.70
15409;DHT22;7803;48.130;13.788;2022-07-09T08:32:22;21.70;89.70
15409;DHT22;7803;48.130;13.788;2022-07-09T08:35:24;21.70;89.80
15409;DHT22;7803;48.130;13.788;2022-07-09T08:38:27;21.70;90.00
15409;DHT22;7803;48.130;13.788;2022-07-09T08:41:30;21.80;90.00
15409;DHT22;7803;48.130;13.788;2022-07-09T08:44:33;21.70;90.00
15409;DHT22;7803;48.130;13.788;2022-07-09T08:47:39;21.70;90.10
15409;DHT22;7803;48.130;13.788;2022-07-09T08:50:41;21.70;90.10
15409;DHT22;7803;48.130;13.788;2022-07-09T08:53:44;21.70;90.20
15409;DHT22;7803;48.130;13.788;2022-07-09T08:56:48;21.70;90.20
15409;DHT22;7803;48.130;13.788;2022-07-09T08:59:51;21.70;90.10
15409;DHT22;7803;48.130;13.788;2022-07-09T09:02:53;21.70;90.00
15409;DHT22;7803;48.130;13.788;2022-07-09T09:06:02;21.80;90.00
15409;DHT22;7803;48.130;13.788;2022-07-09T09:09:07;21.80;89.80
15409;DHT22;7803;48.130;13.788;2022-07-09T09:12:13;21.80;89.60
15409;DHT22;7803;48.130;13.788;2022-07-09T09:15:17;21.70;89.60
15409;DHT22;7803;48.130;13.788;2022-07-09T09:18:22;21.70;89.60
15409;DHT22;7803;48.130;13.788;2022-07-09T09:21:25;21.70;89.30
15409;DHT22;7803;48.130;13.788;2022-07-09T09:24:28;21.70;89.30
15409;DHT22;7803;48.130;13.788;2022-07-09T09:27:32;21.80;89.40
15409;DHT22;7803;48.130;13.788;2022-07-09T09:30:41;21.70;89.40
15409;DHT22;7803;48.130;13.788;2022-07-09T09:33:43;21.70;89.10
15409;DHT22;7803;48.130;13.788;2022-07-09T09:36:46;21.70;89.50
15409;DHT22;7803;48.130;13.788;2022-07-09T09:39:49;21.70;89.70
15409;DHT22;7803;48.130;13.788;2022-07-09T09:42:53;21.70;90.00
15409;DHT22;7803;48.130;13.788;2022-07-09T09:45:58;21.70;90.00
15409;DHT22;7803;48.130;13.788;2022-07-09T09:49:03;21.70;90.10
15409;DHT22;7803;48.130;13.788;2022-07-09T09:52:09;21.70;90.20
15409;DHT22;7803;48.130;13.788;2022-07-09T09:55:12;21.70;90.50
15409;DHT22;7803;48.130;13.788;2022-07-09T09:58:16;21.70;90.60
15409;DHT22;7803;48.130;13.788;2022-07-09T10:01:18;21.70;91.00
15409;DHT22;7803;48.130;13.788;2022-07-09T10:04:20;21.70;91.00
15409;DHT22;7803;48.130;13.788;2022-07-09T10:07:22;21.70;91.20
15409;DHT22;7803;48.130;13.788;2022-07-09T10:10:24;21.70;91.70
15409;DHT22;7803;48.130;13.788;2022-07-09T10:13:28;21.70;92.00
15409;DHT22;7803;48.130;13.788;2022-07-09T10:16:34;21.70;91.90
15409;DHT22;7803;48.130;13.788;2022-07-09T10:19:37;21.80;92.10
15409;DHT22;7803;48.130;13.788;2022-07-09T10:22:41;21.80;92.00
15409;DHT22;7803;48.130;13.788;2022-07-09T10:25:45;21.80;91.90
15409;DHT22;7803;48.130;13.788;2022-07-09T10:28:48;21.80;91.70
15409;DHT22;7803;48.130;13.788;2022-07-09T10:31:51;21.80;91.90
15409;DHT22;7803;48.130;13.788;2022-07-09T10:34:57;21.80;91.80
15409;DHT22;7803;48.130;13.788;2022-07-09T10:38:00;21.80;91.60
15409;DHT22;7803;48.130;13.788;2022-07-09T10:41:02;21.80;91.50
15409;DHT22;7803;48.130;13.788;2022-07-09T10:44:06;21.80;91.50
15409;DHT22;7803;48.130;13.788;2022-07-09T10:47:08;21.80;91.50
15409;DHT22;7803;48.130;13.788;2022-07-09T10:50:10;21.80;91.60
15409;DHT22;7803;48.130;13.788;2022-07-09T10:53:12;21.80;91.60
15409;DHT22;7803;48.130;13.788;2022-07-09T10:56:17;21.80;91.30
15409;DHT22;7803;48.130;13.788;2022-07-09T10:59:21;21.80;91.40
15409;DHT22;7803;48.130;13.788;2022-07-09T11:02:23;21.80;91.60
15409;DHT22;7803;48.130;13.788;2022-07-09T11:05:26;21.80;91.60
15409;DHT22;7803;48.130;13.788;2022-07-09T11:08:30;21.80;91.40
15409;DHT22;7803;48.130;13.788;2022-07-09T11:11:33;21.80;91.20
15409;DHT22;7803;48.130;13.788;2022-07-09T11:14:44;21.80;91.20
15409;DHT22;7803;48.130;13.788;2022-07-09T11:17:54;21.80;91.30
15409;DHT22;7803;48.130;13.788;2022-07-09T11:20:56;21.80;91.30
15409;DHT22;7803;48.130;13.788;2022-07-09T11:23:58;21.80;91.10
15409;DHT22;7803;48.130;13.788;2022-07-09T11:27:04;21.80;90.70
15409;DHT22;7803;48.130;13.788;2022-07-09T11:30:12;21.80;90.80
15409;DHT22;7803;48.130;13.788;2022-07-09T11:33:15;21.80;90.90
15409;DHT22;7803;48.130;13.788;2022-07-09T11:36:17;21.80;91.40
15409;DHT22;7803;48.130;13.788;2022-07-09T11:39:23;21.80;91.00
15409;DHT22;7803;48.130;13.788;2022-07-09T11:42:26;21.80;90.90
15409;DHT22;7803;48.130;13.788;2022-07-09T11:45:30;21.80;90.80
15409;DHT22;7803;48.130;13.788;2022-07-09T11:48:32;21.80;90.70
15409;DHT22;7803;48.130;13.788;2022-07-09T11:51:34;21.80;90.60
15409;DHT22;7803;48.130;13.788;2022-07-09T11:54:36;21.80;90.60
15409;DHT22;7803;48.130;13.788;2022-07-09T11:57:38;21.80;90.50
15409;DHT22;7803;48.130;13.788;2022-07-09T12:00:42;21.80;90.40
15409;DHT22;7803;48.130;13.788;2022-07-09T12:03:47;21.80;90.00
15409;DHT22;7803;48.130;13.788;2022-07-09T12:06:50;21.80;90.00
15409;DHT22;7803;48.130;13.788;2022-07-09T12:09:59;21.80;90.20
15409;DHT22;7803;48.130;13.788;2022-07-09T12:13:02;21.80;90.30
15409;DHT22;7803;48.130;13.788;2022-07-09T12:16:07;21.80;90.30
15409;DHT22;7803;48.130;13.788;2022-07-09T12:19:09;21.80;90.20
15409;DHT22;7803;48.130;13.788;2022-07-09T12:22:11;21.80;90.50
15409;DHT22;7803;48.130;13.788;2022-07-09T12:25:13;21.80;90.00
15409;DHT22;7803;48.130;13.788;2022-07-09T12:28:15;21.80;90.00
15409;DHT22;7803;48.130;13.788;2022-07-09T12:31:19;21.80;90.00
15409;DHT22;7803;48.130;13.788;2022-07-09T12:34:21;21.80;90.00
15409;DHT22;7803;48.130;13.788;2022-07-09T12:37:23;21.80;90.00
15409;DHT22;7803;48.130;13.788;2022-07-09T12:40:26;21.80;90.00
15409;DHT22;7803;48.130;13.788;2022-07-09T12:43:27;21.80;89.80
15409;DHT22;7803;48.130;13.788;2022-07-09T12:46:31;21.80;89.60
15409;DHT22;7803;48.130;13.788;2022-07-09T12:49:33;21.80;89.80
15409;DHT22;7803;48.130;13.788;2022-07-09T12:52:35;21.80;90.00
15409;DHT22;7803;48.130;13.788;2022-07-09T12:55:37;21.80;90.00
15409;DHT22;7803;48.130;13.788;2022-07-09T12:58:39;21.80;90.00
15409;DHT22;7803;48.130;13.788;2022-07-09T13:01:43;21.80;89.90
15409;DHT22;7803;48.130;13.788;2022-07-09T13:04:45;21.80;90.00
15409;DHT22;7803;48.130;13.788;2022-07-09T13:07:47;21.80;90.20
15409;DHT22;7803;48.130;13.788;2022-07-09T13:10:49;21.80;90.00
15409;DHT22;7803;48.130;13.788;2022-07-09T13:13:51;21.80;90.00
15409;DHT22;7803;48.130;13.788;2022-07-09T13:16:55;21.80;89.60
15409;DHT22;7803;48.130;13.788;2022-07-09T13:19:57;21.80;89.60
15409;DHT22;7803;48.130;13.788;2022-07-09T13:22:59;21.80;89.20
15409;DHT22;7803;48.130;13.788;2022-07-09T13:26:01;21.80;89.20
15409;DHT22;7803;48.130;13.788;2022-07-09T13:29:03;21.80;88.80
15409;DHT22;7803;48.130;13.788;2022-07-09T13:32:07;21.80;89.00
15409;DHT22;7803;48.130;13.788;2022-07-09T13:35:09;21.80;89.30
15409;DHT22;7803;48.130;13.788;2022-07-09T13:38:11;21.80;89.90
15409;DHT22;7803;48.130;13.788;2022-07-09T13:41:13;21.80;89.70
15409;DHT22;7803;48.130;13.788;2022-07-09T13:44:17;21.80;90.00
15409;DHT22;7803;48.130;13.788;2022-07-09T13:47:20;21.80;90.00
15409;DHT22;7803;48.130;13.788;2022-07-09T13:50:22;21.80;90.00
15409;DHT22;7803;48.130;13.788;2022-07-09T13:53:24;21.90;90.00
15409;DHT22;7803;48.130;13.788;2022-07-09T13:56:29;21.80;89.80
15409;DHT22;7803;48.130;13.788;2022-07-09T13:59:31;21.80;89.40
15409;DHT22;7803;48.130;13.788;2022-07-09T14:02:35;21.80;89.10
15409;DHT22;7803;48.130;13.788;2022-07-09T14:05:37;21.90;89.30
15409;DHT22;7803;48.130;13.788;2022-07-09T14:08:39;21.80;89.30
15409;DHT22;7803;48.130;13.788;2022-07-09T14:11:41;21.90;89.90
15409;DHT22;7803;48.130;13.788;2022-07-09T14:14:43;21.80;90.00
15409;DHT22;7803;48.130;13.788;2022-07-09T14:17:47;21.80;90.20
15409;DHT22;7803;48.130;13.788;2022-07-09T14:20:49;21.90;90.40
15409;DHT22;7803;48.130;13.788;2022-07-09T14:23:51;21.90;90.60
15409;DHT22;7803;48.130;13.788;2022-07-09T14:26:53;21.90;90.50
15409;DHT22;7803;48.130;13.788;2022-07-09T14:29:55;21.90;90.20
15409;DHT22;7803;48.130;13.788;2022-07-09T14:32:59;21.90;90.10
15409;DHT22;7803;48.130;13.788;2022-07-09T14:36:01;21.80;90.20
15409;DHT22;7803;48.130;13.788;2022-07-09T14:39:03;21.80;90.20
15409;DHT22;7803;48.130;13.788;2022-07-09T14:42:05;21.90;90.10
15409;DHT22;7803;48.130;13.788;2022-07-09T14:45:08;21.90;90.10
15409;DHT22;7803;48.130;13.788;2022-07-09T14:48:11;21.90;90.10
15409;DHT22;7803;48.130;13.788;2022-07-09T14:51:14;21.90;90.20
15409;DHT22;7803;48.130;13.788;2022-07-09T14:54:16;21.80;90.50
15409;DHT22;7803;48.130;13.788;2022-07-09T14:57:18;21.90;90.60
15409;DHT22;7803;48.130;13.788;2022-07-09T15:00:20;21.90;90.50
15409;DHT22;7803;48.130;13.788;2022-07-09T15:03:24;21.90;90.40
15409;DHT22;7803;48.130;13.788;2022-07-09T15:06:26;21.90;90.30
15409;DHT22;7803;48.130;13.788;2022-07-09T15:09:28;21.90;90.30
15409;DHT22;7803;48.130;13.788;2022-07-09T15:12:30;21.90;90.30
15409;DHT22;7803;48.130;13.788;2022-07-09T15:15:32;21.90;90.50
15409;DHT22;7803;48.130;13.788;2022-07-09T15:18:36;21.90;92.60
15409;DHT22;7803;48.130;13.788;2022-07-09T15:21:38;21.90;92.70
15409;DHT22;7803;48.130;13.788;2022-07-09T15:24:40;21.90;92.40
15409;DHT22;7803;48.130;13.788;2022-07-09T15:27:42;21.90;92.00
15409;DHT22;7803;48.130;13.788;2022-07-09T15:30:44;21.90;91.20
15409;DHT22;7803;48.130;13.788;2022-07-09T15:33:48;21.90;91.00
15409;DHT22;7803;48.130;13.788;2022-07-09T15:36:51;22.00;91.20
15409;DHT22;7803;48.130;13.788;2022-07-09T15:39:53;21.90;91.30
15409;DHT22;7803;48.130;13.788;2022-07-09T15:42:55;22.00;91.50
15409;DHT22;7803;48.130;13.788;2022-07-09T15:45:57;21.90;91.60
15409;DHT22;7803;48.130;13.788;2022-07-09T15:49:01;22.00;91.80
15409;DHT22;7803;48.130;13.788;2022-07-09T15:52:05;22.00;91.90
15409;DHT22;7803;48.130;13.788;2022-07-09T15:55:09;22.00;91.90
15409;DHT22;7803;48.130;13.788;2022-07-09T15:58:13;22.00;91.90
15409;DHT22;7803;48.130;13.788;2022-07-09T16:01:15;22.00;91.80
15409;DHT22;7803;48.130;13.788;2022-07-09T16:04:19;22.00;91.80
15409;DHT22;7803;48.130;13.788;2022-07-09T16:07:21;22.00;92.60
15409;DHT22;7803;48.130;13.788;2022-07-09T16:10:23;22.00;93.70
15409;DHT22;7803;48.130;13.788;2022-07-09T16:13:25;22.10;95.70
15409;DHT22;7803;48.130;13.788;2022-07-09T16:16:26;22.10;97.20
15409;DHT22;7803;48.130;13.788;2022-07-09T16:19:29;22.10;97.10
15409;DHT22;7803;48.130;13.788;2022-07-09T16:22:31;22.20;97.70
15409;DHT22;7803;48.130;13.788;2022-07-09T16:25:35;22.20;97.00
15409;DHT22;7803;48.130;13.788;2022-07-09T16:28:37;22.10;96.50
15409;DHT22;7803;48.130;13.788;2022-07-09T16:31:39;22.20;96.40
15409;DHT22;7803;48.130;13.788;2022-07-09T16:34:42;22.20;96.40
15409;DHT22;7803;48.130;13.788;2022-07-09T16:37:45;22.20;96.10
15409;DHT22;7803;48.130;13.788;2022-07-09T16:40:48;22.10;95.70
15409;DHT22;7803;48.130;13.788;2022-07-09T16:43:50;22.20;95.80
15409;DHT22;7803;48.130;13.788;2022-07-09T16:46:52;22.20;95.40
15409;DHT22;7803;48.130;13.788;2022-07-09T16:49:56;22.20;95.20
15409;DHT22;7803;48.130;13.788;2022-07-09T16:52:58;22.20;95.10
15409;DHT22;7803;48.130;13.788;2022-07-09T16:56:00;22.10;95.80
15409;DHT22;7803;48.130;13.788;2022-07-09T16:59:02;22.20;95.30
15409;DHT22;7803;48.130;13.788;2022-07-09T17:02:05;22.20;95.70
15409;DHT22;7803;48.130;13.788;2022-07-09T17:05:09;22.10;95.60
15409;DHT22;7803;48.130;13.788;2022-07-09T17:08:11;22.20;96.10
15409;DHT22;7803;48.130;13.788;2022-07-09T17:11:13;22.20;96.30
15409;DHT22;7803;48.130;13.788;2022-07-09T17:14:15;22.20;96.50
15409;DHT22;7803;48.130;13.788;2022-07-09T17:17:17;22.30;96.70
15409;DHT22;7803;48.130;13.788;2022-07-09T17:20:21;22.20;98.20
15409;DHT22;7803;48.130;13.788;2022-07-09T17:23:23;22.40;99.90
15409;DHT22;7803;48.130;13.788;2022-07-09T17:26:25;22.40;99.90
15409;DHT22;7803;48.130;13.788;2022-07-09T17:29:27;22.50;99.90
15409;DHT22;7803;48.130;13.788;2022-07-09T17:32:29;22.50;98.70
15409;DHT22;7803;48.130;13.788;2022-07-09T17:35:32;22.50;97.80
15409;DHT22;7803;48.130;13.788;2022-07-09T17:38:34;22.50;97.40
15409;DHT22;7803;48.130;13.788;2022-07-09T17:41:36;22.50;97.30
15409;DHT22;7803;48.130;13.788;2022-07-09T17:44:38;22.50;97.20
15409;DHT22;7803;48.130;13.788;2022-07-09T17:47:40;22.50;97.10
15409;DHT22;7803;48.130;13.788;2022-07-09T17:50:44;22.50;97.00
15409;DHT22;7803;48.130;13.788;2022-07-09T17:53:46;22.50;96.80
15409;DHT22;7803;48.130;13.788;2022-07-09T17:56:50;22.50;96.60
15409;DHT22;7803;48.130;13.788;2022-07-09T17:59:52;22.50;96.60
15409;DHT22;7803;48.130;13.788;2022-07-09T18:02:55;22.50;96.60
15409;DHT22;7803;48.130;13.788;2022-07-09T18:05:58;22.50;96.90
15409;DHT22;7803;48.130;13.788;2022-07-09T18:09:00;22.50;97.10
15409;DHT22;7803;48.130;13.788;2022-07-09T18:12:03;22.50;97.50
15409;DHT22;7803;48.130;13.788;2022-07-09T18:15:06;22.50;97.40
15409;DHT22;7803;48.130;13.788;2022-07-09T18:18:08;22.40;97.40
15409;DHT22;7803;48.130;13.788;2022-07-09T18:21:12;22.50;97.10
15409;DHT22;7803;48.130;13.788;2022-07-09T18:24:14;22.50;96.60
15409;DHT22;7803;48.130;13.788;2022-07-09T18:27:17;22.60;96.20
15409;DHT22;7803;48.130;13.788;2022-07-09T18:30:21;22.70;96.90
15409;DHT22;7803;48.130;13.788;2022-07-09T18:33:24;22.70;97.10
15409;DHT22;7803;48.130;13.788;2022-07-09T18:36:27;22.80;97.60
15409;DHT22;7803;48.130;13.788;2022-07-09T18:39:29;22.70;99.00
15409;DHT22;7803;48.130;13.788;2022-07-09T18:42:31;22.70;99.90
15409;DHT22;7803;48.130;13.788;2022-07-09T18:45:33;22.60;99.90
15409;DHT22;7803;48.130;13.788;2022-07-09T18:48:35;22.60;99.90
15409;DHT22;7803;48.130;13.788;2022-07-09T18:51:39;22.60;99.90
15409;DHT22;7803;48.130;13.788;2022-07-09T18:54:42;22.60;99.90
15409;DHT22;7803;48.130;13.788;2022-07-09T18:57:44;22.60;99.90
15409;DHT22;7803;48.130;13.788;2022-07-09T19:00:47;22.60;99.90
15409;DHT22;7803;48.130;13.788;2022-07-09T19:03:51;22.60;99.90
15409;DHT22;7803;48.130;13.788;2022-07-09T19:06:55;22.60;99.90
15409;DHT22;7803;48.130;13.788;2022-07-09T19:09:57;22.60;99.90
15409;DHT22;7803;48.130;13.788;2022-07-09T19:12:59;22.60;99.90